Time;durP1;ratioP1;P1;durP2;ratioP2;P2;SDS_P1;SDS_P2;PMS_P1;PMS_P2;Temp;Humidity;BMP_temperature;BMP_pressure;BME280_temperature;BME280_humidity;BME280_pressure;Samples;Min_cycle;Max_cycle;Signal;HPM_P1;HPM_P2
2022/01/25 00:10:26;;;;;;;8.10;5.60;;;;;;;22.80;27.36;102474.64;103059;1322;61214;-84
2022/01/25 00:31:30;;;;;;;7.80;5.20;;;;;;;22.80;27.05;102469.41;104295;1311;61362;-83
2022/01/25 00:34:42;;;;;;;6.90;5.60;;;;;;;22.80;27.15;102466.93;104274;1311;61214;-82
2022/01/25 00:37:33;;;;;;;7.40;5.40;;;;;;;22.80;27.08;102462.25;104301;1311;73661;-83
2022/01/25 00:40:04;;;;;;;9.20;5.90;;;;;;;22.80;27.00;102456.16;104294;1311;75759;-87
2022/01/25 00:43:05;;;;;;;8.40;5.80;;;;;;;22.80;27.11;102454.36;104314;1311;61185;-85
2022/01/25 00:45:45;;;;;;;7.70;5.50;;;;;;;22.80;27.14;102455.24;104293;1311;61034;-82
2022/01/25 00:54:52;;;;;;;7.10;5.50;;;;;;;22.80;27.33;102445.91;103340;1321;61396;-81
2022/01/25 00:57:38;;;;;;;7.30;5.90;;;;;;;22.81;27.24;102443.73;103240;1321;61420;-85
2022/01/25 01:00:26;;;;;;;;;;;;;;;;;;;;;
2022/01/25 01:03:20;;;;;;;7.90;5.60;;;;;;;22.80;27.19;102441.77;103553;1316;74803;-83
2022/01/25 01:06:05;;;;;;;7.80;5.40;;;;;;;22.80;27.18;102439.27;104063;1315;62722;-82
2022/01/25 01:08:41;;;;;;;8.40;5.60;;;;;;;22.80;27.14;102436.56;104100;1316;61886;-83
2022/01/25 01:11:43;;;;;;;8.00;5.40;;;;;;;22.80;27.14;102435.13;104130;1316;72791;-82
2022/01/25 01:14:49;;;;;;;7.10;5.30;;;;;;;22.80;27.10;102427.98;104160;1316;74834;-82
2022/01/25 01:30:22;;;;;;;8.70;5.90;;;;;;;22.79;27.03;102420.83;102729;1328;61810;-84
2022/01/25 01:48:49;;;;;;;;;;;;;;;;;;;;;
2022/01/25 01:51:31;;;;;;;7.20;5.40;;;;;;;22.79;27.00;102400.19;101580;1347;74985;-82
2022/01/25 01:54:37;;;;;;;7.80;5.30;;;;;;;22.81;26.93;102399.40;101589;1347;61344;-82
2022/01/25 01:57:16;;;;;;;7.70;5.40;;;;;;;22.80;26.98;102396.20;101597;1345;62030;-85
2022/01/25 02:00:04;;;;;;;7.30;5.30;;;;;;;22.80;26.98;102388.48;101674;1344;73795;-86
2022/01/25 02:02:50;;;;;;;6.50;5.10;;;;;;;22.81;26.98;102386.83;101833;1340;76008;-86
2022/01/25 02:05:26;;;;;;;7.30;5.50;;;;;;;22.80;26.94;102382.20;101695;1345;61231;-86
2022/01/25 02:08:17;;;;;;;;;;;;;;;;;;;;;
2022/01/25 02:11:12;;;;;;;7.40;4.90;;;;;;;22.81;27.11;102378.40;101708;1340;71572;-83
2022/01/25 02:14:02;;;;;;;6.80;5.30;;;;;;;22.80;26.88;102374.81;101852;1340;74932;-81
2022/01/25 02:22:56;;;;;;;7.70;5.30;;;;;;;22.79;27.03;102367.33;102682;1328;74412;-82
2022/01/25 02:26:04;;;;;;;8.30;5.60;;;;;;;22.80;27.02;102366.77;102975;1322;72751;-84
2022/01/25 02:28:50;;;;;;;8.00;5.20;;;;;;;22.80;26.96;102369.82;103666;1316;61374;-82
2022/01/25 02:31:19;;;;;;;8.20;6.00;;;;;;;22.80;27.05;102365.69;103889;1316;61200;-78
2022/01/25 02:34:14;;;;;;;8.20;5.20;;;;;;;22.80;26.92;102366.73;103435;1316;74109;-83
2022/01/25 02:37:04;;;;;;;7.50;5.60;;;;;;;22.80;26.97;102367.84;103707;1316;75843;-81
2022/01/25 02:39:59;;;;;;;7.40;5.30;;;;;;;22.80;26.92;102359.58;103890;1316;61478;-80
2022/01/25 02:42:52;;;;;;;;;;;;;;;;;;;;;
2022/01/25 02:49:05;;;;;;;8.10;5.40;;;;;;;22.79;26.95;102349.04;104289;1309;75250;-86
2022/01/25 02:51:48;;;;;;;7.40;5.40;;;;;;;22.80;26.96;102350.80;104416;1309;61193;-82
2022/01/25 02:54:47;;;;;;;8.20;5.40;;;;;;;22.80;27.05;102357.25;104426;1309;61864;-83
2022/01/25 02:57:42;;;;;;;6.80;5.30;;;;;;;22.80;27.03;102354.02;104272;1311;72823;-84
2022/01/25 03:00:24;;;;;;;7.60;5.60;;;;;;;22.80;27.08;102358.33;104301;1313;75241;-84
2022/01/25 03:03:10;;;;;;;7.30;5.30;;;;;;;22.80;26.87;102351.52;104230;1312;61780;-78
2022/01/25 03:06:05;;;;;;;7.90;5.70;;;;;;;22.80;26.91;102351.31;104283;1313;61588;-85
2022/01/25 03:08:50;;;;;;;8.00;5.50;;;;;;;22.80;26.90;102348.65;104314;1311;72780;-83
2022/01/25 03:11:37;;;;;;;8.50;5.60;;;;;;;22.80;26.88;102348.66;104294;1313;76115;-83
2022/01/25 03:14:30;;;;;;;7.00;5.50;;;;;;;22.79;27.03;102342.20;104350;1313;61290;-81
2022/01/25 03:17:23;;;;;;;;;;;;;;;;;;;;;
2022/01/25 03:20:18;;;;;;;7.20;5.40;;;;;;;22.80;26.86;102337.85;104227;1313;72881;-83
2022/01/25 03:23:17;;;;;;;7.80;5.30;;;;;;;22.81;26.90;102328.67;104279;1311;75928;-81
2022/01/25 03:26:10;;;;;;;7.20;5.50;;;;;;;22.80;26.61;102328.17;104369;1311;61283;-84
2022/01/25 03:28:56;;;;;;;8.00;5.90;;;;;;;22.80;26.76;102322.24;104343;1311;61190;-85
2022/01/25 03:31:47;;;;;;;8.50;5.90;;;;;;;22.80;26.72;102312.91;104326;1311;73136;-89
2022/01/25 03:34:33;;;;;;;7.20;5.70;;;;;;;22.80;26.90;102314.72;104348;1307;75867;-86
2022/01/25 03:37:25;;;;;;;7.60;5.90;;;;;;;22.80;26.67;102305.94;104637;1306;61265;-84
2022/01/25 03:40:11;;;;;;;7.60;5.90;;;;;;;22.80;26.76;102301.23;104793;1305;61222;-86
2022/01/25 03:43:12;;;;;;;8.50;5.80;;;;;;;22.80;27.01;102297.67;104766;1303;72880;-89
2022/01/25 03:45:56;;;;;;;;;;;;;;;;;;;;;
2022/01/25 03:52:12;;;;;;;7.10;5.50;;;;;;;22.78;26.74;102301.14;104368;1310;62540;-83
2022/01/25 03:54:49;;;;;;;7.10;5.50;;;;;;;22.78;26.78;102305.48;104315;1311;74005;-87
2022/01/25 03:58:04;;;;;;;8.60;5.90;;;;;;;22.77;26.85;102301.57;104292;1311;76984;-82
2022/01/25 04:00:59;;;;;;;18.40;6.60;;;;;;;22.77;26.72;102304.27;104166;1316;61329;-83
2022/01/25 04:03:56;;;;;;;15.30;6.60;;;;;;;22.77;26.83;102300.67;104090;1316;61198;-82
2022/01/25 04:06:49;;;;;;;12.40;6.90;;;;;;;22.76;27.00;102300.00;104132;1316;72744;-80
2022/01/25 04:09:20;;;;;;;17.30;6.50;;;;;;;22.75;26.84;102302.19;104092;1316;74894;-78
2022/01/25 04:12:06;;;;;;;13.30;6.70;;;;;;;22.75;26.71;102296.65;103891;1314;61475;-83
2022/01/25 04:14:43;;;;;;;12.10;7.30;;;;;;;22.74;26.60;102302.98;103882;1317;61711;-82
2022/01/25 04:17:16;;;;;;;14.60;7.90;;;;;;;22.73;26.64;102298.02;103904;1317;72775;-81
2022/01/25 04:20:19;;;;;;;15.50;8.20;;;;;;;22.72;26.42;102298.98;104025;1317;74727;-81
2022/01/25 04:26:18;;;;;;;19.40;8.90;;;;;;;22.67;26.10;102302.33;103231;1322;61541;-85
2022/01/25 04:28:43;;;;;;;15.50;9.90;;;;;;;22.66;25.99;102305.61;103236;1319;74136;-81
2022/01/25 04:31:50;;;;;;;18.50;10.00;;;;;;;22.64;25.69;102302.14;102938;1321;73581;-88
2022/01/25 04:51:08;;;;;;;15.70;11.10;;;;;;;22.50;24.42;102291.04;102504;1332;61326;-84
2022/01/25 04:53:56;;;;;;;16.60;11.30;;;;;;;22.49;24.32;102288.23;102522;1332;73845;-82
2022/01/25 05:00:15;;;;;;;16.90;11.00;;;;;;;22.45;23.98;102290.60;102145;1331;61819;-82
2022/01/25 05:03:21;;;;;;;18.00;11.10;;;;;;;22.44;23.77;102292.42;102496;1332;61548;-80
2022/01/25 05:06:10;;;;;;;;;;;;;;;;;;;;;
2022/01/25 05:09:07;;;;;;;18.50;11.40;;;;;;;22.42;23.50;102285.34;102490;1327;75015;-87
2022/01/25 05:11:53;;;;;;;19.60;11.80;;;;;;;22.41;23.43;102280.02;102534;1328;61432;-82
2022/01/25 05:14:54;;;;;;;17.60;11.00;;;;;;;22.40;23.29;102277.20;102548;1328;61467;-84
2022/01/25 05:17:39;;;;;;;17.00;10.60;;;;;;;22.38;23.20;102277.33;102534;1328;72943;-81
2022/01/25 05:23:49;;;;;;;19.90;12.20;;;;;;;22.29;23.13;102266.45;102547;1328;62450;-88
2022/01/25 05:26:34;;;;;;;20.70;12.20;;;;;;;22.23;23.06;102263.88;102731;1323;60569;-81
2022/01/25 05:29:20;;;;;;;21.30;13.50;;;;;;;22.19;22.89;102266.98;104024;1311;73807;-81
2022/01/25 05:32:10;;;;;;;11.30;8.30;;;;;;;22.14;22.72;102274.45;104562;1303;75955;-81
2022/01/25 05:34:55;;;;;;;13.00;9.50;;;;;;;22.09;22.84;102274.88;104755;1303;61435;-81
2022/01/25 05:37:49;;;;;;;14.30;10.30;;;;;;;22.05;22.65;102280.95;104540;1305;61374;-85
2022/01/25 05:40:55;;;;;;;16.30;11.50;;;;;;;22.00;22.38;102280.38;104425;1305;71723;-81
2022/01/25 05:49:00;;;;;;;20.70;14.20;;;;;;;21.83;21.64;102273.71;104283;1304;61272;-81
2022/01/25 05:51:26;;;;;;;18.50;14.50;;;;;;;21.74;21.64;102267.86;104319;1303;72732;-81
2022/01/25 05:53:51;;;;;;;23.30;15.80;;;;;;;21.68;21.12;102269.26;104210;1305;61438;-79
2022/01/25 05:56:17;;;;;;;23.80;15.40;;;;;;;21.59;20.96;102266.45;104169;1305;61304;-79
2022/01/25 05:58:43;;;;;;;25.20;15.60;;;;;;;21.48;20.84;102266.48;103948;1305;61236;-78
2022/01/25 06:01:11;;;;;;;21.30;13.70;;;;;;;21.40;20.75;102267.54;104100;1305;59925;-78
2022/01/25 06:03:42;;;;;;;21.40;14.20;;;;;;;21.36;20.59;102265.46;104290;1305;61739;-77
2022/01/25 06:06:16;;;;;;;19.90;13.00;;;;;;;21.35;20.64;102271.23;104236;1303;61744;-78
2022/01/25 06:08:42;;;;;;;23.50;13.90;;;;;;;21.35;20.64;102269.41;104104;1306;63711;-79
2022/01/25 06:11:08;;;;;;;20.80;15.40;;;;;;;21.36;20.71;102275.48;104181;1305;61464;-78
2022/01/25 06:13:33;;;;;;;23.00;16.40;;;;;;;21.37;20.71;102270.98;104112;1305;61390;-78
2022/01/25 06:15:59;;;;;;;23.20;15.70;;;;;;;21.38;20.46;102267.67;104222;1305;61288;-78
2022/01/25 06:18:32;;;;;;;20.30;14.70;;;;;;;21.40;20.50;102263.99;104333;1303;61601;-78
2022/01/25 06:21:00;;;;;;;21.00;13.50;;;;;;;21.42;20.42;102256.71;104054;1305;61404;-78
2022/01/25 06:23:25;;;;;;;19.50;14.70;;;;;;;21.45;20.53;102253.55;104326;1304;63018;-78
2022/01/25 06:25:51;;;;;;;19.70;14.80;;;;;;;21.47;20.38;102253.41;104035;1307;61431;-78
2022/01/25 06:28:18;;;;;;;19.90;13.80;;;;;;;21.49;20.31;102249.55;104121;1305;61309;-79
2022/01/25 06:30:48;;;;;;;21.10;14.10;;;;;;;21.53;20.23;102247.61;104204;1304;61307;-79
2022/01/25 06:33:15;;;;;;;20.60;14.30;;;;;;;21.55;20.25;102248.55;104357;1305;72742;-78
2022/01/25 06:35:45;;;;;;;19.60;14.60;;;;;;;21.58;20.33;102240.17;104286;1304;61472;-79
2022/01/25 06:38:14;;;;;;;20.50;13.50;;;;;;;21.63;20.30;102244.45;104443;1304;60397;-79
2022/01/25 06:40:40;;;;;;;17.50;13.50;;;;;;;21.68;20.18;102247.41;104166;1303;61232;-81
2022/01/25 06:43:06;;;;;;;18.80;13.90;;;;;;;21.73;20.32;102246.98;104333;1303;61431;-79
2022/01/25 06:45:51;;;;;;;;;;;;;;;;;;;;;
2022/01/25 06:48:17;;;;;;;18.60;13.60;;;;;;;21.82;20.17;102233.78;104292;1303;61497;-79
2022/01/25 06:50:51;;;;;;;19.80;13.80;;;;;;;21.87;20.36;102233.50;104059;1305;61080;-78
2022/01/25 06:53:17;;;;;;;16.60;12.70;;;;;;;21.92;20.32;102232.51;104031;1304;61308;-78
2022/01/25 06:55:42;;;;;;;16.60;13.30;;;;;;;21.94;20.36;102227.08;104128;1305;61288;-78
2022/01/25 06:58:08;;;;;;;23.10;13.60;;;;;;;21.92;20.60;102225.04;104210;1305;61333;-78
2022/01/25 07:00:34;;;;;;;18.70;13.50;;;;;;;21.90;20.51;102231.38;104051;1304;61307;-78
2022/01/25 07:02:59;;;;;;;24.00;13.70;;;;;;;21.91;20.60;102234.54;104273;1304;61282;-78
2022/01/25 07:05:25;;;;;;;17.80;11.90;;;;;;;21.95;20.80;102232.92;104251;1304;61282;-78
2022/01/25 07:07:52;;;;;;;23.50;12.80;;;;;;;21.99;20.84;102235.05;105119;1304;60200;-77
2022/01/25 07:10:18;;;;;;;18.20;12.30;;;;;;;22.03;20.80;102229.84;104609;1305;61160;-78
2022/01/25 07:12:43;;;;;;;17.30;12.80;;;;;;;22.07;21.09;102228.70;104126;1305;61493;-78
2022/01/25 07:15:09;;;;;;;17.10;12.10;;;;;;;22.11;21.00;102223.15;104413;1303;61286;-78
2022/01/25 07:17:37;;;;;;;26.20;11.80;;;;;;;22.14;21.30;102220.80;104199;1303;61951;-77
2022/01/25 07:20:06;;;;;;;20.20;12.10;;;;;;;22.18;21.50;102224.20;104110;1303;63574;-79
2022/01/25 07:22:33;;;;;;;27.30;13.90;;;;;;;22.17;21.85;102220.14;103964;1305;61400;-78
2022/01/25 07:25:14;;;;;;;18.90;13.80;;;;;;;22.07;21.92;102218.48;104127;1305;74138;-79
2022/01/25 07:27:43;;;;;;;24.10;15.30;;;;;;;21.81;22.77;102219.33;104317;1303;76067;-80
2022/01/25 07:30:12;;;;;;;23.20;16.60;;;;;;;21.50;23.49;102223.22;104273;1305;61245;-81
2022/01/25 07:32:38;;;;;;;24.60;16.10;;;;;;;21.23;24.04;102220.96;103959;1306;59588;-78
2022/01/25 07:35:04;;;;;;;21.70;16.30;;;;;;;20.98;24.33;102217.86;103922;1307;61428;-78
2022/01/25 07:37:30;;;;;;;21.40;15.90;;;;;;;20.78;24.65;102214.38;103912;1305;61254;-78
2022/01/25 07:40:01;;;;;;;19.70;16.00;;;;;;;20.64;24.73;102218.21;103896;1305;61770;-79
2022/01/25 07:42:32;;;;;;;27.00;16.80;;;;;;;20.49;24.67;102217.14;104138;1303;61189;-79
2022/01/25 07:44:58;;;;;;;26.30;16.20;;;;;;;20.35;24.43;102217.06;104205;1305;72722;-79
2022/01/25 07:47:24;;;;;;;22.90;16.10;;;;;;;20.22;23.96;102213.67;103984;1305;61284;-79
2022/01/25 07:49:50;;;;;;;21.20;15.70;;;;;;;20.14;23.86;102213.52;103985;1305;61293;-79
2022/01/25 07:52:16;;;;;;;23.30;15.60;;;;;;;20.06;23.42;102217.09;103943;1305;61464;-78
2022/01/25 07:54:42;;;;;;;21.20;14.60;;;;;;;19.97;23.36;102220.73;103540;1304;61307;-79
2022/01/25 07:57:08;;;;;;;26.10;15.50;;;;;;;19.90;23.26;102223.49;103868;1303;61332;-78
2022/01/25 07:59:34;;;;;;;22.90;15.60;;;;;;;19.90;23.20;102221.36;103695;1304;61335;-78
2022/01/25 08:02:02;;;;;;;23.20;13.30;;;;;;;19.91;23.05;102218.30;103555;1307;61276;-79
2022/01/25 08:04:28;;;;;;;27.50;15.50;;;;;;;19.93;23.16;102218.20;103726;1303;62474;-78
2022/01/25 08:06:55;;;;;;;22.70;16.80;;;;;;;19.94;23.08;102218.51;103903;1305;61274;-78
2022/01/25 08:09:21;;;;;;;20.90;14.40;;;;;;;19.83;22.24;102216.64;103910;1305;61310;-78
2022/01/25 08:11:47;;;;;;;23.50;14.90;;;;;;;19.67;22.28;102218.21;104194;1305;61306;-79
2022/01/25 08:14:17;;;;;;;18.70;13.30;;;;;;;19.70;22.13;102216.30;104042;1305;61465;-79
2022/01/25 08:16:54;;;;;;;23.10;14.40;;;;;;;19.83;22.19;102219.02;103925;1305;74988;-80
2022/01/25 08:19:27;;;;;;;19.70;13.40;;;;;;;19.98;22.09;102216.02;104026;1304;61343;-79
2022/01/25 08:21:53;;;;;;;18.20;12.40;;;;;;;20.10;22.06;102215.66;104100;1303;61421;-77
2022/01/25 08:24:19;;;;;;;19.70;13.10;;;;;;;20.23;22.03;102212.93;103900;1306;61270;-78
2022/01/25 08:26:46;;;;;;;20.00;13.30;;;;;;;20.33;22.19;102206.59;104151;1303;61295;-78
2022/01/25 08:29:22;;;;;;;18.00;13.50;;;;;;;20.42;22.18;102207.41;103863;1303;61387;-79
2022/01/25 08:31:53;;;;;;;21.50;14.20;;;;;;;20.50;22.12;102204.89;103812;1305;61237;-77
2022/01/25 08:34:19;;;;;;;23.70;16.50;;;;;;;20.58;22.15;102207.02;103941;1305;72757;-80
2022/01/25 08:36:45;;;;;;;24.90;16.50;;;;;;;20.66;22.18;102208.27;104137;1305;63415;-79
2022/01/25 08:39:15;;;;;;;23.60;16.90;;;;;;;20.72;22.30;102206.41;103962;1305;61307;-80
2022/01/25 08:41:44;;;;;;;24.40;16.70;;;;;;;20.78;22.33;102200.93;104009;1303;64493;-81
2022/01/25 08:44:11;;;;;;;21.30;15.60;;;;;;;20.85;22.23;102207.02;104019;1305;73255;-81
2022/01/25 08:46:40;;;;;;;20.80;15.40;;;;;;;20.92;22.11;102212.59;104023;1305;75840;-78
2022/01/25 08:49:10;;;;;;;24.90;15.70;;;;;;;21.00;22.23;102213.15;103930;1305;61344;-79
2022/01/25 08:51:36;;;;;;;20.20;14.70;;;;;;;21.06;22.19;102213.23;103608;1305;63239;-81
2022/01/25 08:54:02;;;;;;;18.60;14.20;;;;;;;21.08;22.04;102212.36;103625;1305;61377;-82
2022/01/25 08:56:27;;;;;;;24.10;14.70;;;;;;;21.06;22.26;102212.67;103661;1305;61257;-78
2022/01/25 08:58:54;;;;;;;21.10;14.50;;;;;;;21.01;22.32;102213.11;103733;1306;61374;-79
2022/01/25 09:01:20;;;;;;;18.20;14.10;;;;;;;20.91;22.20;102216.05;103687;1305;61295;-78
2022/01/25 09:03:47;;;;;;;31.40;14.40;;;;;;;20.83;22.19;102213.23;103625;1305;61314;-79
2022/01/25 09:06:12;;;;;;;25.50;13.80;;;;;;;20.75;22.28;102211.48;103840;1305;61313;-81
2022/01/25 09:08:38;;;;;;;24.90;14.00;;;;;;;20.73;22.40;102210.85;103892;1305;61601;-80
2022/01/25 09:11:06;;;;;;;21.30;14.00;;;;;;;20.74;22.62;102209.55;103770;1305;61339;-79
2022/01/25 09:13:33;;;;;;;21.40;12.90;;;;;;;20.77;22.68;102201.70;104654;1303;59507;-79
2022/01/25 09:15:59;;;;;;;21.70;13.30;;;;;;;20.82;22.63;102200.06;103963;1303;61315;-80
2022/01/25 09:18:32;;;;;;;20.20;12.90;;;;;;;20.89;22.63;102193.29;103949;1305;61639;-78
2022/01/25 09:20:58;;;;;;;17.50;12.00;;;;;;;20.94;22.54;102188.73;103864;1305;61365;-80
2022/01/25 09:23:24;;;;;;;16.80;12.20;;;;;;;20.99;22.72;102182.77;103983;1305;61258;-78
2022/01/25 09:25:53;;;;;;;15.90;11.30;;;;;;;21.04;22.58;102184.27;105272;1305;75694;-79
2022/01/25 09:28:20;;;;;;;22.50;12.80;;;;;;;21.09;22.74;102179.92;105211;1305;59570;-79
2022/01/25 09:30:45;;;;;;;18.90;12.30;;;;;;;21.15;22.78;102179.13;105078;1304;59603;-79
2022/01/25 09:33:14;;;;;;;19.60;11.90;;;;;;;21.20;22.71;102176.35;104054;1305;62440;-78
2022/01/25 09:35:40;;;;;;;17.30;12.60;;;;;;;21.23;22.59;102173.49;103659;1305;74809;-78
2022/01/25 09:38:05;;;;;;;21.00;11.90;;;;;;;21.26;22.65;102170.83;104132;1303;61261;-78
2022/01/25 09:40:31;;;;;;;19.40;12.40;;;;;;;21.28;22.73;102163.21;103910;1305;61280;-79
2022/01/25 09:42:58;;;;;;;18.00;11.80;;;;;;;21.30;22.51;102161.00;103967;1303;61359;-82
2022/01/25 09:45:25;;;;;;;17.50;11.70;;;;;;;21.32;22.68;102163.59;104007;1303;61402;-79
2022/01/25 09:47:52;;;;;;;16.70;12.00;;;;;;;21.33;22.62;102161.36;104472;1303;62501;-79
2022/01/25 09:50:20;;;;;;;15.90;11.50;;;;;;;21.35;22.39;102151.94;103769;1307;61270;-79
2022/01/25 09:52:45;;;;;;;19.70;12.30;;;;;;;21.36;22.53;102145.97;105081;1305;73338;-79
2022/01/25 09:55:14;;;;;;;20.40;13.10;;;;;;;21.33;22.59;102143.09;105110;1305;60767;-79
2022/01/25 09:57:40;;;;;;;19.40;11.50;;;;;;;21.26;22.34;102141.65;105115;1304;63181;-79
2022/01/25 10:00:06;;;;;;;20.60;11.60;;;;;;;21.23;22.44;102135.94;105197;1304;59966;-79
2022/01/25 10:02:47;;;;;;;25.60;13.30;;;;;;;21.22;22.93;102135.96;104970;1303;72747;-79
2022/01/25 10:05:43;;;;;;;16.90;12.30;;;;;;;21.20;22.88;102135.50;105243;1303;74739;-79
2022/01/25 10:08:08;;;;;;;18.70;11.70;;;;;;;21.16;22.64;102129.81;105434;1303;60522;-79
2022/01/25 10:10:42;;;;;;;32.70;12.00;;;;;;;21.15;22.94;102128.45;105243;1304;59493;-78
2022/01/25 10:13:10;;;;;;;22.50;12.10;;;;;;;21.14;22.96;102125.27;105010;1304;370017;-78
2022/01/25 10:15:35;;;;;;;17.40;11.50;;;;;;;21.15;23.24;102123.77;105099;1305;74027;-79
2022/01/25 10:18:01;;;;;;;19.60;11.50;;;;;;;21.16;23.23;102127.86;105270;1303;59632;-79
2022/01/25 10:20:29;;;;;;;19.90;13.20;;;;;;;21.15;23.05;102125.77;105413;1305;60746;-79
2022/01/25 10:22:57;;;;;;;16.70;11.50;;;;;;;21.12;22.89;102122.32;104454;1304;61365;-79
2022/01/25 10:25:37;;;;;;;21.70;11.60;;;;;;;21.08;22.92;102113.20;103785;1305;73702;-78
2022/01/25 10:28:10;;;;;;;22.80;13.00;;;;;;;21.06;22.83;102112.91;105274;1305;60979;-80
2022/01/25 10:30:57;;;;;;;20.00;11.60;;;;;;;21.04;22.76;102109.10;105292;1305;60204;-80
2022/01/25 10:33:39;;;;;;;20.30;12.10;;;;;;;21.00;22.61;102101.63;104472;1305;73827;-81
2022/01/25 10:36:17;;;;;;;18.50;12.30;;;;;;;20.95;22.37;102105.30;104757;1305;74718;-79
2022/01/25 10:38:44;;;;;;;18.70;12.50;;;;;;;20.90;22.28;102103.36;104623;1303;61874;-79
2022/01/25 10:41:14;;;;;;;21.50;12.10;;;;;;;20.86;22.18;102098.00;104006;1304;61977;-81
2022/01/25 10:44:04;;;;;;;17.50;12.10;;;;;;;20.81;21.94;102098.09;103972;1304;72954;-80
2022/01/25 10:46:31;;;;;;;20.50;11.60;;;;;;;20.74;21.68;102095.38;104903;1311;75212;-78
2022/01/25 10:49:01;;;;;;;18.90;11.50;;;;;;;20.69;21.70;102096.35;104375;1309;61299;-80
2022/01/25 10:51:33;;;;;;;20.20;11.20;;;;;;;20.66;21.72;102088.60;103679;1311;61175;-80
2022/01/25 10:54:14;;;;;;;19.10;12.00;;;;;;;20.63;21.65;102082.63;103090;1311;73870;-83
2022/01/25 10:56:54;;;;;;;18.90;11.60;;;;;;;20.57;21.52;102075.42;103224;1311;74161;-78
2022/01/25 10:59:22;;;;;;;19.40;11.60;;;;;;;20.54;21.60;102071.46;104860;1309;61482;-79
2022/01/25 11:01:52;;;;;;;24.60;12.90;;;;;;;20.53;21.49;102066.54;104736;1311;62889;-78
2022/01/25 11:04:21;;;;;;;19.20;11.50;;;;;;;20.50;21.49;102056.31;104888;1309;74186;-78
2022/01/25 11:06:57;;;;;;;18.70;11.60;;;;;;;20.50;21.45;102054.70;104748;1311;74142;-80
2022/01/25 11:09:23;;;;;;;18.00;11.00;;;;;;;20.49;21.56;102047.96;104977;1310;60429;-81
2022/01/25 11:11:52;;;;;;;18.70;10.80;;;;;;;20.49;21.33;102045.08;103707;1311;60853;-81
2022/01/25 11:17:03;;;;;;;23.00;10.30;;;;;;;20.58;21.96;102033.89;105061;1310;74905;-80
2022/01/25 11:19:30;;;;;;;15.90;10.50;;;;;;;20.63;22.15;102025.08;105004;1310;60026;-80
2022/01/25 11:21:58;;;;;;;18.70;10.90;;;;;;;20.67;22.24;102028.84;104927;1310;59435;-80
2022/01/25 11:24:24;;;;;;;16.10;10.30;;;;;;;20.71;22.33;102021.46;105195;1305;73821;-80
2022/01/25 11:26:50;;;;;;;17.40;11.10;;;;;;;20.77;22.33;102018.32;105453;1305;59516;-80
2022/01/25 11:29:17;;;;;;;16.90;10.20;;;;;;;20.82;22.27;102016.27;105324;1305;59730;-81
2022/01/25 11:31:50;;;;;;;15.40;10.50;;;;;;;20.87;22.27;102011.73;104079;1304;63351;-79
2022/01/25 11:34:17;;;;;;;14.90;10.40;;;;;;;20.92;22.27;102006.62;103919;1304;73800;-79
2022/01/25 11:36:55;;;;;;;15.80;11.00;;;;;;;20.96;22.40;102005.55;104053;1305;76269;-79
2022/01/25 11:39:26;;;;;;;16.40;10.60;;;;;;;21.00;22.36;101999.77;104063;1303;61424;-78
2022/01/25 11:42:00;;;;;;;17.60;10.20;;;;;;;21.03;22.46;101994.95;103697;1306;61303;-79
2022/01/25 11:44:26;;;;;;;16.20;10.30;;;;;;;21.07;22.35;101989.96;104062;1305;76971;-80
2022/01/25 11:47:13;;;;;;;15.60;10.70;;;;;;;21.09;22.37;101985.16;103728;1305;61394;-79
2022/01/25 11:50:01;;;;;;;15.50;10.10;;;;;;;21.12;22.30;101981.27;103888;1305;61259;-79
2022/01/25 11:52:28;;;;;;;14.20;10.80;;;;;;;21.10;22.40;101976.02;103582;1305;61173;-80
2022/01/25 11:55:14;;;;;;;15.30;10.20;;;;;;;20.98;21.88;101983.08;103765;1305;61324;-79
2022/01/25 11:57:48;;;;;;;18.60;10.00;;;;;;;20.76;21.40;101977.05;105116;1305;77221;-78
2022/01/25 12:00:14;;;;;;;14.00;9.80;;;;;;;20.55;21.15;101975.41;105248;1305;61062;-79
2022/01/25 12:02:39;;;;;;;15.20;10.70;;;;;;;20.45;21.02;101971.60;105104;1304;59632;-80
2022/01/25 12:05:07;;;;;;;16.40;11.20;;;;;;;20.32;20.60;101969.55;105530;1303;59673;-80
2022/01/25 12:07:39;;;;;;;16.00;11.00;;;;;;;20.26;20.63;101961.27;105174;1305;59735;-80
2022/01/25 12:10:31;;;;;;;16.20;11.10;;;;;;;20.27;20.55;101962.99;105448;1303;61330;-79
2022/01/25 12:13:20;;;;;;;14.30;10.70;;;;;;;20.31;20.63;101959.98;105291;1305;61420;-80
2022/01/25 12:15:46;;;;;;;18.10;12.00;;;;;;;20.33;20.66;101952.19;104652;1305;72918;-80
2022/01/25 12:18:49;;;;;;;18.40;12.10;;;;;;;20.36;20.80;101952.93;103675;1305;62741;-79
2022/01/25 12:21:15;;;;;;;19.30;12.10;;;;;;;20.37;20.84;101956.61;104092;1303;61297;-79
2022/01/25 12:23:46;;;;;;;17.00;11.30;;;;;;;20.38;20.77;101954.77;104117;1305;60106;-79
2022/01/25 12:26:18;;;;;;;18.70;12.00;;;;;;;20.40;20.89;101946.13;103902;1305;72701;-79
2022/01/25 12:28:46;;;;;;;18.90;11.70;;;;;;;20.39;20.89;101945.23;103881;1305;75715;-80
2022/01/25 12:31:16;;;;;;;18.70;12.10;;;;;;;20.39;20.93;101941.33;103751;1305;61197;-79
2022/01/25 12:33:53;;;;;;;;;;;;;;;;;;;;;
2022/01/25 12:36:19;;;;;;;13.70;9.40;;;;;;;20.35;20.64;101935.46;104057;1303;72841;-81
2022/01/25 12:38:51;;;;;;;15.30;11.10;;;;;;;20.34;20.97;101932.67;103867;1306;61280;-81
2022/01/25 12:41:20;;;;;;;13.60;10.70;;;;;;;20.34;20.98;101936.23;103964;1305;61343;-80
2022/01/25 12:43:59;;;;;;;17.50;10.70;;;;;;;20.33;21.16;101934.67;104181;1305;61400;-80
2022/01/25 12:46:30;;;;;;;17.10;10.80;;;;;;;20.32;21.12;101930.23;104034;1304;73098;-81
2022/01/25 12:49:10;;;;;;;14.80;10.60;;;;;;;20.29;20.93;101922.70;103941;1306;76141;-81
2022/01/25 12:51:39;;;;;;;19.50;10.40;;;;;;;20.19;20.34;101922.12;105322;1305;60301;-79
2022/01/25 12:54:06;;;;;;;17.90;9.60;;;;;;;20.10;20.28;101918.98;105338;1305;60345;-80
2022/01/25 12:56:39;;;;;;;14.90;9.80;;;;;;;20.06;20.10;101921.52;105426;1305;73914;-79
2022/01/25 12:59:14;;;;;;;12.30;9.50;;;;;;;19.96;19.87;101921.14;105477;1305;75906;-79
2022/01/25 13:01:40;;;;;;;16.40;10.00;;;;;;;19.88;19.71;101923.63;105426;1305;59651;-80
2022/01/25 13:04:07;;;;;;;12.20;9.70;;;;;;;19.90;19.87;101924.95;105409;1304;62911;-79
2022/01/25 13:06:38;;;;;;;15.60;9.90;;;;;;;19.93;19.86;101925.17;105253;1305;59545;-79
2022/01/25 13:09:12;;;;;;;16.30;9.60;;;;;;;19.96;20.15;101919.48;104153;1308;77101;-80
2022/01/25 13:14:29;;;;;;;;;;;;;;;;;;;;;
2022/01/25 13:17:14;;;;;;;13.20;9.70;;;;;;;19.98;20.08;101918.50;103717;1308;72412;-80
2022/01/25 13:20:06;;;;;;;17.70;9.50;;;;;;;19.90;19.72;101918.91;103707;1311;75911;-79
2022/01/25 13:22:48;;;;;;;20.90;9.30;;;;;;;19.90;20.41;101923.02;103406;1316;61204;-80
2022/01/25 13:25:28;;;;;;;18.00;9.30;;;;;;;19.99;21.01;101916.50;103367;1316;61793;-80
2022/01/25 13:27:58;;;;;;;18.60;9.30;;;;;;;20.06;21.25;101911.50;103270;1316;74191;-80
2022/01/25 13:30:44;;;;;;;;;;;;;;;20.13;21.30;101910.12;103165;1317;75331;-82
2022/01/25 13:33:17;;;;;;;16.00;9.20;;;;;;;20.15;21.27;101906.05;103644;1316;62520;-80
2022/01/25 13:36:19;;;;;;;;;;;;;;;;;;;;;
2022/01/25 13:38:46;;;;;;;17.40;9.00;;;;;;;20.29;21.29;101906.27;103603;1316;72740;-82
2022/01/25 13:41:41;;;;;;;16.20;9.60;;;;;;;20.34;21.39;101906.71;103335;1316;61268;-84
2022/01/25 13:46:43;;;;;;;14.60;9.00;;;;;;;20.44;21.41;101901.73;102713;1322;61399;-83
2022/01/25 13:49:19;;;;;;;15.70;8.70;;;;;;;20.50;21.64;101900.73;102682;1322;72650;-81
2022/01/25 13:52:03;;;;;;;;;;;;;;;;;;;;;
2022/01/25 13:54:29;;;;;;;16.00;8.40;;;;;;;20.59;21.89;101896.33;102757;1319;61473;-79
2022/01/25 13:57:00;;;;;;;14.30;8.60;;;;;;;20.61;22.01;101894.80;103138;1316;61475;-79
2022/01/25 13:59:34;;;;;;;12.20;8.20;;;;;;;20.64;22.08;101889.95;103001;1313;73854;-81